sensor_id;sensor_type;location;lat;lon;timestamp;P1;durP1;ratioP1;P2;durP2;ratioP2
73699;SDS011;62005;50.082;8.988;2023-03-14T00:05:24;1.05;;;0.15;;
73699;SDS011;62005;50.082;8.988;2023-03-14T00:10:38;2.55;;;0.20;;
73699;SDS011;62005;50.082;8.988;2023-03-14T00:13:20;1.60;;;0.43;;
73699;SDS011;62005;50.082;8.988;2023-03-14T00:18:30;1.10;;;0.20;;
73699;SDS011;62005;50.082;8.988;2023-03-14T00:21:07;1.88;;;0.50;;
73699;SDS011;62005;50.082;8.988;2023-03-14T00:24:14;0.80;;;0.20;;
73699;SDS011;62005;50.082;8.988;2023-03-14T00:29:58;1.60;;;0.10;;
73699;SDS011;62005;50.082;8.988;2023-03-14T00:32:50;0.40;;;0.08;;
73699;SDS011;62005;50.082;8.988;2023-03-14T00:35:15;2.63;;;0.47;;
73699;SDS011;62005;50.082;8.988;2023-03-14T00:40:56;1.60;;;0.20;;
73699;SDS011;62005;50.082;8.988;2023-03-14T00:43:42;4.10;;;0.43;;
73699;SDS011;62005;50.082;8.988;2023-03-14T00:46:22;5.30;;;0.20;;
73699;SDS011;62005;50.082;8.988;2023-03-14T00:52:16;2.13;;;0.20;;
73699;SDS011;62005;50.082;8.988;2023-03-14T00:54:41;3.50;;;0.20;;
73699;SDS011;62005;50.082;8.988;2023-03-14T00:57:18;3.03;;;0.28;;
73699;SDS011;62005;50.082;8.988;2023-03-14T01:00:27;7.13;;;0.70;;
73699;SDS011;62005;50.082;8.988;2023-03-14T01:03:15;3.65;;;0.40;;
73699;SDS011;62005;50.082;8.988;2023-03-14T01:06:13;1.50;;;0.10;;
73699;SDS011;62005;50.082;8.988;2023-03-14T01:09:10;1.23;;;0.20;;
73699;SDS011;62005;50.082;8.988;2023-03-14T01:12:33;1.40;;;0.20;;
73699;SDS011;62005;50.082;8.988;2023-03-14T01:17:57;1.65;;;0.20;;
73699;SDS011;62005;50.082;8.988;2023-03-14T01:21:08;0.98;;;0.10;;
73699;SDS011;62005;50.082;8.988;2023-03-14T01:26:49;0.77;;;0.40;;
73699;SDS011;62005;50.082;8.988;2023-03-14T01:33:04;0.50;;;0.30;;
73699;SDS011;62005;50.082;8.988;2023-03-14T01:35:56;1.55;;;0.30;;
73699;SDS011;62005;50.082;8.988;2023-03-14T01:39:08;2.83;;;0.20;;
73699;SDS011;62005;50.082;8.988;2023-03-14T01:58:39;1.35;;;0.20;;
73699;SDS011;62005;50.082;8.988;2023-03-14T02:11:00;1.77;;;0.20;;
73699;SDS011;62005;50.082;8.988;2023-03-14T02:14:20;2.78;;;0.40;;
73699;SDS011;62005;50.082;8.988;2023-03-14T02:17:44;1.23;;;0.15;;
73699;SDS011;62005;50.082;8.988;2023-03-14T02:29:50;2.10;;;0.30;;
73699;SDS011;62005;50.082;8.988;2023-03-14T02:44:59;0.85;;;0.20;;
73699;SDS011;62005;50.082;8.988;2023-03-14T02:47:49;1.27;;;0.20;;
73699;SDS011;62005;50.082;8.988;2023-03-14T02:50:45;1.15;;;0.20;;
73699;SDS011;62005;50.082;8.988;2023-03-14T02:53:34;1.63;;;0.13;;
73699;SDS011;62005;50.082;8.988;2023-03-14T02:59:59;0.73;;;0.10;;
73699;SDS011;62005;50.082;8.988;2023-03-14T03:08:56;4.90;;;0.30;;
73699;SDS011;62005;50.082;8.988;2023-03-14T03:19:57;1.92;;;0.13;;
73699;SDS011;62005;50.082;8.988;2023-03-14T03:22:28;0.85;;;0.22;;
73699;SDS011;62005;50.082;8.988;2023-03-14T03:25:05;1.10;;;0.20;;
73699;SDS011;62005;50.082;8.988;2023-03-14T03:27:45;0.95;;;0.20;;
73699;SDS011;62005;50.082;8.988;2023-03-14T03:30:14;4.72;;;0.20;;
73699;SDS011;62005;50.082;8.988;2023-03-14T03:33:01;1.13;;;0.20;;
73699;SDS011;62005;50.082;8.988;2023-03-14T03:35:33;2.72;;;0.50;;
73699;SDS011;62005;50.082;8.988;2023-03-14T03:38:15;2.97;;;0.50;;
73699;SDS011;62005;50.082;8.988;2023-03-14T03:41:11;1.10;;;0.20;;
73699;SDS011;62005;50.082;8.988;2023-03-14T03:43:39;3.40;;;0.20;;
73699;SDS011;62005;50.082;8.988;2023-03-14T03:46:15;2.45;;;0.30;;
73699;SDS011;62005;50.082;8.988;2023-03-14T03:48:46;2.85;;;0.32;;
73699;SDS011;62005;50.082;8.988;2023-03-14T03:54:09;1.88;;;0.30;;
73699;SDS011;62005;50.082;8.988;2023-03-14T03:56:59;1.30;;;0.30;;
73699;SDS011;62005;50.082;8.988;2023-03-14T03:59:24;1.73;;;0.10;;
73699;SDS011;62005;50.082;8.988;2023-03-14T04:02:06;3.60;;;0.30;;
73699;SDS011;62005;50.082;8.988;2023-03-14T04:05:31;1.70;;;0.20;;
73699;SDS011;62005;50.082;8.988;2023-03-14T04:08:28;2.85;;;0.30;;
73699;SDS011;62005;50.082;8.988;2023-03-14T04:11:06;2.50;;;0.20;;
73699;SDS011;62005;50.082;8.988;2023-03-14T04:13:52;0.88;;;0.20;;
73699;SDS011;62005;50.082;8.988;2023-03-14T04:23:03;4.70;;;0.10;;
73699;SDS011;62005;50.082;8.988;2023-03-14T04:26:00;1.65;;;0.20;;
73699;SDS011;62005;50.082;8.988;2023-03-14T04:29:00;1.23;;;0.20;;
73699;SDS011;62005;50.082;8.988;2023-03-14T04:31:25;2.73;;;0.23;;
73699;SDS011;62005;50.082;8.988;2023-03-14T04:34:08;2.95;;;0.30;;
73699;SDS011;62005;50.082;8.988;2023-03-14T04:36:50;1.38;;;0.20;;
73699;SDS011;62005;50.082;8.988;2023-03-14T04:39:36;2.63;;;0.20;;
73699;SDS011;62005;50.082;8.988;2023-03-14T04:42:24;3.38;;;0.20;;
73699;SDS011;62005;50.082;8.988;2023-03-14T04:48:01;1.92;;;0.10;;
73699;SDS011;62005;50.082;8.988;2023-03-14T04:56:56;3.45;;;0.32;;
73699;SDS011;62005;50.082;8.988;2023-03-14T04:59:57;2.08;;;0.20;;
73699;SDS011;62005;50.082;8.988;2023-03-14T05:02:47;5.43;;;0.25;;
73699;SDS011;62005;50.082;8.988;2023-03-14T05:14:35;1.27;;;0.13;;
73699;SDS011;62005;50.082;8.988;2023-03-14T05:20:05;1.65;;;0.10;;
73699;SDS011;62005;50.082;8.988;2023-03-14T05:22:41;0.95;;;0.25;;
73699;SDS011;62005;50.082;8.988;2023-03-14T05:25:29;2.42;;;0.20;;
73699;SDS011;62005;50.082;8.988;2023-03-14T05:28:06;2.47;;;0.22;;
73699;SDS011;62005;50.082;8.988;2023-03-14T05:33:21;1.73;;;0.17;;
73699;SDS011;62005;50.082;8.988;2023-03-14T05:36:16;3.95;;;0.25;;
73699;SDS011;62005;50.082;8.988;2023-03-14T05:38:44;3.35;;;0.15;;
73699;SDS011;62005;50.082;8.988;2023-03-14T05:41:24;2.03;;;0.40;;
73699;SDS011;62005;50.082;8.988;2023-03-14T05:43:51;3.22;;;0.10;;
73699;SDS011;62005;50.082;8.988;2023-03-14T05:49:37;3.58;;;0.22;;
73699;SDS011;62005;50.082;8.988;2023-03-14T05:52:53;2.00;;;0.28;;
73699;SDS011;62005;50.082;8.988;2023-03-14T05:55:18;5.07;;;0.30;;
73699;SDS011;62005;50.082;8.988;2023-03-14T05:57:48;1.38;;;0.32;;
73699;SDS011;62005;50.082;8.988;2023-03-14T06:00:19;2.10;;;0.20;;
73699;SDS011;62005;50.082;8.988;2023-03-14T06:02:48;0.85;;;0.10;;
73699;SDS011;62005;50.082;8.988;2023-03-14T06:05:20;0.77;;;0.05;;
73699;SDS011;62005;50.082;8.988;2023-03-14T06:08:26;2.47;;;0.20;;
73699;SDS011;62005;50.082;8.988;2023-03-14T06:11:29;2.80;;;0.10;;
73699;SDS011;62005;50.082;8.988;2023-03-14T06:14:38;1.42;;;0.10;;
73699;SDS011;62005;50.082;8.988;2023-03-14T06:17:16;2.88;;;0.28;;
73699;SDS011;62005;50.082;8.988;2023-03-14T06:25:28;2.47;;;0.10;;
73699;SDS011;62005;50.082;8.988;2023-03-14T06:28:01;4.70;;;1.85;;
73699;SDS011;62005;50.082;8.988;2023-03-14T06:30:34;1.63;;;0.20;;
73699;SDS011;62005;50.082;8.988;2023-03-14T06:33:18;2.17;;;0.30;;
73699;SDS011;62005;50.082;8.988;2023-03-14T06:35:53;2.28;;;0.22;;
73699;SDS011;62005;50.082;8.988;2023-03-14T06:38:21;2.17;;;0.20;;
73699;SDS011;62005;50.082;8.988;2023-03-14T06:41:11;1.83;;;0.20;;
73699;SDS011;62005;50.082;8.988;2023-03-14T06:43:51;1.88;;;0.30;;
73699;SDS011;62005;50.082;8.988;2023-03-14T06:46:23;6.22;;;0.50;;
73699;SDS011;62005;50.082;8.988;2023-03-14T06:49:04;2.20;;;0.20;;
73699;SDS011;62005;50.082;8.988;2023-03-14T06:51:44;2.05;;;0.30;;
73699;SDS011;62005;50.082;8.988;2023-03-14T06:54:22;1.23;;;0.10;;
73699;SDS011;62005;50.082;8.988;2023-03-14T06:59:46;2.53;;;0.90;;
73699;SDS011;62005;50.082;8.988;2023-03-14T07:04:57;3.25;;;0.22;;
73699;SDS011;62005;50.082;8.988;2023-03-14T07:13:55;3.92;;;0.20;;
73699;SDS011;62005;50.082;8.988;2023-03-14T07:16:28;0.85;;;0.20;;
73699;SDS011;62005;50.082;8.988;2023-03-14T07:18:57;3.28;;;0.15;;
73699;SDS011;62005;50.082;8.988;2023-03-14T07:21:23;1.65;;;0.20;;
73699;SDS011;62005;50.082;8.988;2023-03-14T07:23:54;0.75;;;0.10;;
73699;SDS011;62005;50.082;8.988;2023-03-14T07:26:25;1.02;;;0.03;;
73699;SDS011;62005;50.082;8.988;2023-03-14T07:28:58;0.82;;;0.20;;
73699;SDS011;62005;50.082;8.988;2023-03-14T07:34:18;1.38;;;0.13;;
73699;SDS011;62005;50.082;8.988;2023-03-14T07:39:29;0.30;;;0.00;;
73699;SDS011;62005;50.082;8.988;2023-03-14T07:42:04;1.40;;;0.10;;
73699;SDS011;62005;50.082;8.988;2023-03-14T07:44:30;1.73;;;0.10;;
73699;SDS011;62005;50.082;8.988;2023-03-14T07:47:00;1.15;;;0.30;;
73699;SDS011;62005;50.082;8.988;2023-03-14T07:49:28;2.08;;;0.00;;
73699;SDS011;62005;50.082;8.988;2023-03-14T07:57:23;2.00;;;0.25;;
73699;SDS011;62005;50.082;8.988;2023-03-14T07:59:55;2.20;;;0.20;;
73699;SDS011;62005;50.082;8.988;2023-03-14T08:02:33;0.82;;;0.22;;
73699;SDS011;62005;50.082;8.988;2023-03-14T08:07:32;0.75;;;0.10;;
73699;SDS011;62005;50.082;8.988;2023-03-14T08:10:04;3.40;;;0.30;;
73699;SDS011;62005;50.082;8.988;2023-03-14T08:12:30;1.38;;;0.40;;
73699;SDS011;62005;50.082;8.988;2023-03-14T08:14:55;5.22;;;0.13;;
73699;SDS011;62005;50.082;8.988;2023-03-14T08:17:21;1.63;;;0.30;;
73699;SDS011;62005;50.082;8.988;2023-03-14T08:19:49;3.70;;;0.25;;
73699;SDS011;62005;50.082;8.988;2023-03-14T08:22:43;1.00;;;0.10;;
73699;SDS011;62005;50.082;8.988;2023-03-14T08:25:21;3.05;;;0.10;;
73699;SDS011;62005;50.082;8.988;2023-03-14T08:27:46;1.38;;;0.20;;
73699;SDS011;62005;50.082;8.988;2023-03-14T08:30:15;0.83;;;0.10;;
73699;SDS011;62005;50.082;8.988;2023-03-14T08:32:41;1.88;;;0.10;;
73699;SDS011;62005;50.082;8.988;2023-03-14T08:35:15;2.85;;;0.20;;
73699;SDS011;62005;50.082;8.988;2023-03-14T08:37:41;1.80;;;0.10;;
73699;SDS011;62005;50.082;8.988;2023-03-14T08:40:07;0.55;;;0.00;;
73699;SDS011;62005;50.082;8.988;2023-03-14T08:42:35;1.33;;;0.00;;
73699;SDS011;62005;50.082;8.988;2023-03-14T08:45:04;2.95;;;0.20;;
73699;SDS011;62005;50.082;8.988;2023-03-14T08:47:46;0.88;;;0.10;;
73699;SDS011;62005;50.082;8.988;2023-03-14T08:50:16;0.90;;;0.20;;
73699;SDS011;62005;50.082;8.988;2023-03-14T08:52:44;1.20;;;0.03;;
73699;SDS011;62005;50.082;8.988;2023-03-14T08:55:25;1.63;;;0.35;;
73699;SDS011;62005;50.082;8.988;2023-03-14T08:57:52;1.27;;;0.20;;
73699;SDS011;62005;50.082;8.988;2023-03-14T09:00:18;0.43;;;0.00;;
73699;SDS011;62005;50.082;8.988;2023-03-14T09:02:52;1.25;;;0.10;;
73699;SDS011;62005;50.082;8.988;2023-03-14T09:05:17;0.98;;;0.00;;
73699;SDS011;62005;50.082;8.988;2023-03-14T09:07:46;0.50;;;0.10;;
73699;SDS011;62005;50.082;8.988;2023-03-14T09:10:16;1.05;;;0.00;;
73699;SDS011;62005;50.082;8.988;2023-03-14T09:12:45;1.85;;;0.10;;
73699;SDS011;62005;50.082;8.988;2023-03-14T09:15:10;1.83;;;0.00;;
73699;SDS011;62005;50.082;8.988;2023-03-14T09:17:38;1.38;;;0.10;;
73699;SDS011;62005;50.082;8.988;2023-03-14T09:20:04;0.50;;;0.03;;
73699;SDS011;62005;50.082;8.988;2023-03-14T09:22:53;2.58;;;0.13;;
73699;SDS011;62005;50.082;8.988;2023-03-14T09:25:21;0.95;;;0.10;;
73699;SDS011;62005;50.082;8.988;2023-03-14T09:27:52;3.05;;;0.10;;
73699;SDS011;62005;50.082;8.988;2023-03-14T09:30:18;2.00;;;0.10;;
73699;SDS011;62005;50.082;8.988;2023-03-14T09:32:52;0.50;;;0.00;;
73699;SDS011;62005;50.082;8.988;2023-03-14T09:38:59;1.77;;;0.10;;
73699;SDS011;62005;50.082;8.988;2023-03-14T09:41:26;1.33;;;0.13;;
73699;SDS011;62005;50.082;8.988;2023-03-14T09:50:42;1.52;;;0.68;;
73699;SDS011;62005;50.082;8.988;2023-03-14T09:53:18;0.30;;;0.13;;
73699;SDS011;62005;50.082;8.988;2023-03-14T09:59:02;1.85;;;0.10;;
73699;SDS011;62005;50.082;8.988;2023-03-14T10:02:11;0.15;;;0.00;;
73699;SDS011;62005;50.082;8.988;2023-03-14T10:04:49;0.60;;;0.10;;
73699;SDS011;62005;50.082;8.988;2023-03-14T10:07:28;0.73;;;0.13;;
73699;SDS011;62005;50.082;8.988;2023-03-14T10:09:58;1.35;;;0.10;;
73699;SDS011;62005;50.082;8.988;2023-03-14T10:12:45;0.60;;;0.10;;
73699;SDS011;62005;50.082;8.988;2023-03-14T10:15:30;1.38;;;0.03;;
73699;SDS011;62005;50.082;8.988;2023-03-14T10:18:01;0.40;;;0.00;;
73699;SDS011;62005;50.082;8.988;2023-03-14T10:20:38;0.82;;;0.10;;
73699;SDS011;62005;50.082;8.988;2023-03-14T10:25:41;0.55;;;0.00;;
73699;SDS011;62005;50.082;8.988;2023-03-14T10:30:52;0.50;;;0.10;;
73699;SDS011;62005;50.082;8.988;2023-03-14T10:40:00;0.82;;;0.00;;
73699;SDS011;62005;50.082;8.988;2023-03-14T10:42:48;0.65;;;0.00;;
73699;SDS011;62005;50.082;8.988;2023-03-14T10:48:33;0.20;;;0.00;;
73699;SDS011;62005;50.082;8.988;2023-03-14T10:51:24;2.13;;;0.00;;
73699;SDS011;62005;50.082;8.988;2023-03-14T11:09:02;0.22;;;0.00;;
73699;SDS011;62005;50.082;8.988;2023-03-14T11:11:41;1.48;;;0.10;;
73699;SDS011;62005;50.082;8.988;2023-03-14T11:14:41;2.92;;;0.15;;
73699;SDS011;62005;50.082;8.988;2023-03-14T11:40:25;0.57;;;0.13;;
73699;SDS011;62005;50.082;8.988;2023-03-14T11:43:25;0.52;;;0.20;;
73699;SDS011;62005;50.082;8.988;2023-03-14T11:45:58;0.20;;;0.00;;
73699;SDS011;62005;50.082;8.988;2023-03-14T12:01:40;0.63;;;0.30;;
73699;SDS011;62005;50.082;8.988;2023-03-14T12:07:18;0.80;;;0.10;;
73699;SDS011;62005;50.082;8.988;2023-03-14T12:13:44;0.80;;;0.20;;
73699;SDS011;62005;50.082;8.988;2023-03-14T12:16:27;1.10;;;0.10;;
73699;SDS011;62005;50.082;8.988;2023-03-14T12:26:25;3.05;;;1.10;;
73699;SDS011;62005;50.082;8.988;2023-03-14T12:29:24;1.77;;;0.30;;
73699;SDS011;62005;50.082;8.988;2023-03-14T13:04:04;1.48;;;0.00;;
73699;SDS011;62005;50.082;8.988;2023-03-14T13:13:45;0.30;;;0.10;;
73699;SDS011;62005;50.082;8.988;2023-03-14T13:16:40;0.30;;;0.05;;
73699;SDS011;62005;50.082;8.988;2023-03-14T13:26:48;0.15;;;0.00;;
73699;SDS011;62005;50.082;8.988;2023-03-14T13:29:43;0.55;;;0.10;;
73699;SDS011;62005;50.082;8.988;2023-03-14T13:41:42;0.30;;;0.10;;
73699;SDS011;62005;50.082;8.988;2023-03-14T13:47:33;0.40;;;0.20;;
73699;SDS011;62005;50.082;8.988;2023-03-14T13:50:16;1.17;;;0.15;;
73699;SDS011;62005;50.082;8.988;2023-03-14T14:02:56;0.45;;;0.10;;
73699;SDS011;62005;50.082;8.988;2023-03-14T14:15:02;1.08;;;1.08;;
73699;SDS011;62005;50.082;8.988;2023-03-14T14:18:22;0.30;;;0.00;;
73699;SDS011;62005;50.082;8.988;2023-03-14T14:26:54;0.20;;;0.10;;
73699;SDS011;62005;50.082;8.988;2023-03-14T16:23:36;0.80;;;0.30;;
73699;SDS011;62005;50.082;8.988;2023-03-14T19:56:33;1.63;;;0.63;;
73699;SDS011;62005;50.082;8.988;2023-03-14T19:59:43;4.65;;;0.90;;
73699;SDS011;62005;50.082;8.988;2023-03-14T20:02:46;5.63;;;0.82;;
73699;SDS011;62005;50.082;8.988;2023-03-14T20:05:16;3.00;;;0.70;;
73699;SDS011;62005;50.082;8.988;2023-03-14T20:30:30;3.35;;;0.90;;
73699;SDS011;62005;50.082;8.988;2023-03-14T20:36:24;3.33;;;0.98;;
73699;SDS011;62005;50.082;8.988;2023-03-14T20:42:29;5.35;;;1.88;;
73699;SDS011;62005;50.082;8.988;2023-03-14T21:33:55;4.00;;;1.83;;
73699;SDS011;62005;50.082;8.988;2023-03-14T21:36:39;5.28;;;1.75;;
73699;SDS011;62005;50.082;8.988;2023-03-14T21:39:40;8.30;;;1.67;;
73699;SDS011;62005;50.082;8.988;2023-03-14T21:42:29;7.68;;;2.60;;
73699;SDS011;62005;50.082;8.988;2023-03-14T21:47:59;4.72;;;1.13;;
73699;SDS011;62005;50.082;8.988;2023-03-14T21:50:53;4.55;;;0.88;;
73699;SDS011;62005;50.082;8.988;2023-03-14T21:53:52;2.28;;;0.55;;
73699;SDS011;62005;50.082;8.988;2023-03-14T22:24:03;5.85;;;1.52;;
73699;SDS011;62005;50.082;8.988;2023-03-14T23:31:14;4.85;;;2.05;;
73699;SDS011;62005;50.082;8.988;2023-03-14T23:33:43;4.80;;;1.55;;
73699;SDS011;62005;50.082;8.988;2023-03-14T23:36:23;7.22;;;1.90;;
73699;SDS011;62005;50.082;8.988;2023-03-14T23:38:53;4.18;;;1.48;;
73699;SDS011;62005;50.082;8.988;2023-03-14T23:50:33;5.43;;;2.10;;
73699;SDS011;62005;50.082;8.988;2023-03-14T23:53:14;8.57;;;2.53;;
73699;SDS011;62005;50.082;8.988;2023-03-14T23:55:54;6.82;;;2.47;;
73699;SDS011;62005;50.082;8.988;2023-03-14T23:58:33;6.55;;;1.75;;
